Time;durP1;ratioP1;P1;durP2;ratioP2;P2;SDS_P1;SDS_P2;PMS_P1;PMS_P2;Temp;Humidity;BMP_temperature;BMP_pressure;BME280_temperature;BME280_humidity;BME280_pressure;Samples;Min_cycle;Max_cycle;Signal;HPM_P1;HPM_P2
2024/01/12 00:01:53;;;;;;;39.50;23.80;;;;;;;-5.37;100.00;150007.72;4988260;28;20458;-84
2024/01/12 00:04:20;;;;;;;40.93;22.97;;;;;;;-5.28;100.00;150030.72;4997190;28;20424;-84
2024/01/12 00:06:48;;;;;;;36.90;23.50;;;;;;;-5.32;100.00;150019.22;4987402;28;20465;-84
2024/01/12 00:09:15;;;;;;;38.23;22.87;;;;;;;-5.39;100.00;150002.63;4994395;28;21000;-84
2024/01/12 00:11:41;;;;;;;34.57;23.60;;;;;;;-5.45;100.00;149987.28;4970827;28;20420;-84
2024/01/12 00:14:08;;;;;;;35.03;21.80;;;;;;;-5.49;100.00;149977.09;4972781;28;20497;-84
2024/01/12 00:16:34;;;;;;;36.20;22.80;;;;;;;-5.56;100.00;149960.47;4968916;28;20437;-84
2024/01/12 00:19:02;;;;;;;28.87;22.83;;;;;;;-5.63;100.00;149941.31;5003751;28;20439;-84
2024/01/12 00:21:29;;;;;;;31.80;21.37;;;;;;;-5.66;100.00;149934.94;4971843;28;20461;-84
2024/01/12 00:23:55;;;;;;;36.70;22.67;;;;;;;-5.68;100.00;149928.56;5002831;28;20552;-84
2024/01/12 00:26:22;;;;;;;36.50;20.53;;;;;;;-5.70;100.00;149923.47;4994350;28;20648;-85
2024/01/12 00:28:49;;;;;;;31.40;21.00;;;;;;;-5.72;100.00;149918.38;4989723;28;20446;-86
2024/01/12 00:31:15;;;;;;;35.87;22.17;;;;;;;-5.77;100.00;149906.84;4974837;28;20801;-85
2024/01/12 00:33:42;;;;;;;38.57;22.20;;;;;;;-5.78;100.00;149903.06;4999588;28;20486;-85
2024/01/12 00:36:10;;;;;;;36.97;21.87;;;;;;;-5.78;100.00;149904.34;4969303;28;20429;-85
2024/01/12 00:38:36;;;;;;;33.17;22.40;;;;;;;-5.78;100.00;149903.06;4998998;28;20465;-86
2024/01/12 00:41:03;;;;;;;35.90;22.00;;;;;;;-5.75;100.00;149910.72;5003880;28;20443;-84
2024/01/12 00:43:30;;;;;;;30.43;21.50;;;;;;;-5.76;100.00;149908.16;4986346;28;20478;-83
2024/01/12 00:45:57;;;;;;;32.93;19.50;;;;;;;-5.74;100.00;149914.53;4989891;28;20500;-84
2024/01/12 00:48:24;;;;;;;36.33;23.30;;;;;;;-5.76;100.00;149909.44;4986890;28;20494;-84
2024/01/12 00:50:51;;;;;;;42.40;24.53;;;;;;;-5.81;100.00;149895.38;4989524;28;20495;-85
2024/01/12 00:53:19;;;;;;;36.97;22.20;;;;;;;-5.80;100.00;149897.97;4989523;28;20447;-84
2024/01/12 00:55:45;;;;;;;34.43;22.70;;;;;;;-5.81;100.00;149895.38;4974395;28;20448;-85
2024/01/12 00:58:12;;;;;;;33.27;21.93;;;;;;;-5.81;100.00;149895.38;4982924;28;20452;-85
2024/01/12 01:00:38;;;;;;;38.10;21.50;;;;;;;-5.80;100.00;149897.97;4989619;28;20485;-85
2024/01/12 01:03:06;;;;;;;34.43;22.83;;;;;;;-5.80;100.00;149897.97;4989339;28;20457;-85
2024/01/12 01:05:32;;;;;;;32.10;21.10;;;;;;;-5.76;100.00;149908.16;4997104;28;20810;-84
2024/01/12 01:07:59;;;;;;;32.83;20.70;;;;;;;-5.80;100.00;149897.97;4998976;28;20453;-84
2024/01/12 01:10:27;;;;;;;33.80;21.27;;;;;;;-5.80;100.00;149899.19;4988360;28;20446;-84
2024/01/12 01:12:54;;;;;;;38.80;23.43;;;;;;;-5.82;100.00;149894.09;4974140;28;20839;-83
2024/01/12 01:15:20;;;;;;;33.70;23.33;;;;;;;-5.86;100.00;149883.97;4983431;28;20477;-84
2024/01/12 01:17:47;;;;;;;37.67;21.70;;;;;;;-5.87;100.00;149880.09;5005877;28;20485;-84
2024/01/12 01:20:15;;;;;;;40.40;22.20;;;;;;;-5.87;100.00;149880.09;4988843;28;20457;-84
2024/01/12 01:22:41;;;;;;;37.13;24.37;;;;;;;-5.87;100.00;149880.09;4977441;28;20545;-84
2024/01/12 01:25:08;;;;;;;34.23;22.50;;;;;;;-5.88;100.00;149877.59;4962565;28;20467;-85
2024/01/12 01:27:36;;;;;;;34.57;21.40;;;;;;;-5.93;100.00;149864.81;5003933;28;20413;-84
2024/01/12 01:30:03;;;;;;;36.10;22.60;;;;;;;-5.99;100.00;149850.78;5002857;28;20412;-84
2024/01/12 01:32:29;;;;;;;35.10;24.10;;;;;;;-6.04;100.00;149838.03;4986986;28;20455;-85
2024/01/12 01:34:56;;;;;;;36.73;24.33;;;;;;;-6.03;100.00;149839.25;4985809;28;20996;-83
2024/01/12 01:37:22;;;;;;;36.63;21.43;;;;;;;-6.06;100.00;149831.66;4988180;28;21687;-85
2024/01/12 01:39:48;;;;;;;35.57;23.13;;;;;;;-6.09;100.00;149824.00;4995971;28;20445;-84
2024/01/12 01:42:15;;;;;;;32.90;22.50;;;;;;;-6.13;100.00;149815.03;5000975;28;20214;-84
2024/01/12 01:44:43;;;;;;;37.23;24.10;;;;;;;-6.13;100.00;149815.03;4986014;28;20916;-84
2024/01/12 01:47:09;;;;;;;38.67;23.03;;;;;;;-6.17;100.00;149804.84;5001913;28;20446;-84
2024/01/12 01:49:36;;;;;;;37.50;23.80;;;;;;;-6.19;100.00;149801.00;4983601;28;20535;-84
2024/01/12 01:52:03;;;;;;;36.37;22.87;;;;;;;-6.19;100.00;149799.72;4987228;28;20432;-84
2024/01/12 01:54:30;;;;;;;35.87;21.83;;;;;;;-6.21;100.00;149795.91;4987583;28;20975;-85
2024/01/12 01:56:57;;;;;;;36.60;24.10;;;;;;;-6.23;100.00;149790.81;4988157;28;21169;-85
2024/01/12 01:59:24;;;;;;;38.27;22.43;;;;;;;-6.22;100.00;149793.34;4984091;28;20458;-85
2024/01/12 02:01:52;;;;;;;36.50;22.60;;;;;;;-6.22;100.00;149792.06;4985110;28;20498;-84
2024/01/12 02:04:19;;;;;;;46.60;23.60;;;;;;;-6.23;100.00;149790.81;4989414;28;20752;-85
2024/01/12 02:06:46;;;;;;;37.37;22.47;;;;;;;-6.22;100.00;149793.34;4986246;28;20511;-84
2024/01/12 02:09:13;;;;;;;36.67;21.23;;;;;;;-6.24;100.00;149788.25;5000347;28;20457;-84
2024/01/12 02:11:39;;;;;;;36.67;22.57;;;;;;;-6.25;100.00;149785.69;4986162;28;20437;-85
2024/01/12 02:14:08;;;;;;;36.77;23.00;;;;;;;-6.23;100.00;149789.53;4984134;28;20531;-85
2024/01/12 02:16:35;;;;;;;37.40;22.63;;;;;;;-6.22;100.00;149792.06;5001164;28;20460;-85
2024/01/12 02:19:03;;;;;;;40.47;22.57;;;;;;;-6.23;100.00;149790.81;4985511;28;20943;-85
2024/01/12 02:21:31;;;;;;;41.43;22.93;;;;;;;-6.24;100.00;149788.25;4968517;28;20813;-85
2024/01/12 02:23:57;;;;;;;45.80;24.30;;;;;;;-6.24;100.00;149788.25;4982669;28;20440;-84
2024/01/12 02:26:24;;;;;;;33.50;21.23;;;;;;;-6.17;100.00;149806.09;4976213;28;20465;-84
2024/01/12 02:32:45;;;;;;;41.03;22.20;;;;;;;-6.19;100.00;149801.00;4985406;28;20843;-85
2024/01/12 02:35:11;;;;;;;36.07;21.53;;;;;;;-6.21;100.00;149794.63;4984617;28;20473;-85
2024/01/12 02:37:39;;;;;;;33.20;22.03;;;;;;;-6.23;100.00;149789.53;4985345;28;20477;-85
2024/01/12 02:40:07;;;;;;;38.10;22.77;;;;;;;-6.20;100.00;149797.19;4985012;28;20452;-86
2024/01/12 02:42:34;;;;;;;32.30;20.20;;;;;;;-6.19;100.00;149801.00;4988953;28;20422;-85
2024/01/12 02:45:00;;;;;;;38.83;21.93;;;;;;;-6.19;100.00;149799.72;4986596;28;21018;-85
2024/01/12 02:47:27;;;;;;;38.57;22.97;;;;;;;-6.18;100.00;149803.56;5012779;28;20437;-85
2024/01/12 02:49:53;;;;;;;34.57;24.10;;;;;;;-6.17;100.00;149806.09;4990072;28;20448;-85
2024/01/12 02:52:20;;;;;;;41.43;24.10;;;;;;;-6.18;100.00;149803.56;5006584;28;20961;-85
2024/01/12 02:54:48;;;;;;;34.67;22.30;;;;;;;-6.22;100.00;149793.34;5006189;28;20443;-85
2024/01/12 02:57:15;;;;;;;31.87;22.20;;;;;;;-6.25;100.00;149785.69;4970727;28;20830;-85
2024/01/12 02:59:41;;;;;;;32.40;20.60;;;;;;;-6.27;100.00;149779.31;5006268;28;20551;-85
2024/01/12 03:02:08;;;;;;;41.63;22.87;;;;;;;-6.28;100.00;149776.78;4985820;28;20460;-85
2024/01/12 03:04:34;;;;;;;35.30;21.90;;;;;;;-6.33;100.00;149765.25;5002780;28;20453;-85
2024/01/12 03:07:01;;;;;;;41.70;23.40;;;;;;;-6.35;100.00;149760.16;4987532;28;20950;-85
2024/01/12 03:09:27;;;;;;;38.80;22.67;;;;;;;-6.38;100.00;149751.28;5005681;28;20452;-85
2024/01/12 03:11:55;;;;;;;36.70;23.27;;;;;;;-6.36;100.00;149756.38;4987896;28;20446;-85
2024/01/12 03:14:22;;;;;;;36.30;20.63;;;;;;;-6.38;100.00;149752.50;4970659;28;20883;-85
2024/01/12 03:16:49;;;;;;;40.20;25.17;;;;;;;-6.39;100.00;149750.00;4989772;28;20823;-85
2024/01/12 03:19:16;;;;;;;39.87;23.50;;;;;;;-6.39;100.00;149748.72;5004132;28;20567;-85
2024/01/12 03:21:42;;;;;;;35.30;23.27;;;;;;;-6.41;100.00;149744.91;4973581;28;20445;-85
2024/01/12 03:24:09;;;;;;;44.50;23.67;;;;;;;-6.43;100.00;149738.47;4990576;28;20979;-85
2024/01/12 03:26:36;;;;;;;32.83;21.87;;;;;;;-6.45;100.00;149733.38;4987136;28;20458;-85
2024/01/12 03:29:04;;;;;;;35.90;21.70;;;;;;;-6.45;100.00;149733.38;5004087;28;20484;-85
2024/01/12 03:31:31;;;;;;;33.67;22.17;;;;;;;-6.48;100.00;149725.72;4986232;28;20473;-85
2024/01/12 03:33:57;;;;;;;38.90;23.50;;;;;;;-6.50;100.00;149720.63;4990348;28;20481;-85
2024/01/12 03:36:24;;;;;;;34.03;20.73;;;;;;;-6.52;100.00;149716.81;4970089;28;20463;-85
2024/01/12 03:38:53;;;;;;;38.47;23.20;;;;;;;-6.54;100.00;149711.69;5002099;28;20462;-85
2024/01/12 03:41:19;;;;;;;34.87;22.10;;;;;;;-6.56;100.00;149706.59;4988955;28;20444;-85
2024/01/12 03:43:46;;;;;;;38.80;23.17;;;;;;;-6.58;100.00;149700.22;4989326;28;20435;-86
2024/01/12 03:46:14;;;;;;;41.17;23.03;;;;;;;-6.57;100.00;149704.09;4988745;28;20815;-85
2024/01/12 03:48:41;;;;;;;36.20;23.07;;;;;;;-6.56;100.00;149706.59;4988057;28;20449;-85
2024/01/12 03:51:08;;;;;;;32.33;22.00;;;;;;;-6.57;100.00;149704.09;4987539;28;21137;-85
2024/01/12 03:53:35;;;;;;;37.27;21.60;;;;;;;-6.58;100.00;149700.22;4988534;28;20461;-85
2024/01/12 03:56:02;;;;;;;40.80;22.10;;;;;;;-6.60;100.00;149696.41;4987258;28;20536;-86
2024/01/12 03:58:30;;;;;;;30.50;19.90;;;;;;;-6.61;100.00;149693.84;4987861;28;20511;-85
2024/01/12 04:00:57;;;;;;;29.13;20.47;;;;;;;-6.60;100.00;149696.41;5004300;28;20438;-86
2024/01/12 04:03:24;;;;;;;31.70;20.50;;;;;;;-6.57;100.00;149704.09;4987612;28;20802;-86
2024/01/12 04:05:51;;;;;;;27.60;19.97;;;;;;;-6.55;100.00;149709.16;4987833;28;20434;-85
2024/01/12 04:08:18;;;;;;;31.80;20.70;;;;;;;-6.58;100.00;149701.50;4989161;28;21040;-85
2024/01/12 04:10:44;;;;;;;31.53;20.40;;;;;;;-6.57;100.00;149704.09;4975448;28;20473;-86
2024/01/12 04:13:11;;;;;;;40.00;20.00;;;;;;;-6.56;100.00;149705.31;4973223;28;20508;-85
2024/01/12 04:15:38;;;;;;;29.70;20.63;;;;;;;-6.49;100.00;149724.50;4987139;28;20509;-85
2024/01/12 04:18:05;;;;;;;32.60;19.97;;;;;;;-6.30;100.00;149771.69;4987003;28;20474;-85
2024/01/12 04:20:33;;;;;;;31.60;19.30;;;;;;;-6.31;100.00;149769.13;4989767;28;20791;-86
2024/01/12 04:23:00;;;;;;;35.53;21.40;;;;;;;-6.40;100.00;149746.13;4984270;28;20472;-85
2024/01/12 04:25:26;;;;;;;42.07;22.90;;;;;;;-6.46;100.00;149730.88;4991494;28;20463;-86
2024/01/12 04:27:53;;;;;;;38.67;20.53;;;;;;;-6.42;100.00;149742.34;4984183;28;20592;-85
2024/01/12 04:30:19;;;;;;;28.70;19.63;;;;;;;-6.24;100.00;149788.25;4987165;28;20545;-85
2024/01/12 04:32:46;;;;;;;34.63;22.43;;;;;;;-6.04;100.00;149836.75;5000716;28;20464;-85
2024/01/12 04:35:12;;;;;;;40.37;23.40;;;;;;;-5.93;100.00;149866.06;4983909;28;20474;-85
2024/01/12 04:37:40;;;;;;;43.10;23.83;;;;;;;-5.91;100.00;149871.22;4971782;28;20469;-85
2024/01/12 04:40:08;;;;;;;34.60;21.20;;;;;;;-5.89;100.00;149875.00;4988815;28;20449;-85
2024/01/12 04:42:35;;;;;;;35.57;23.20;;;;;;;-5.96;100.00;149857.16;4983346;28;20935;-85
2024/01/12 04:45:01;;;;;;;33.57;21.93;;;;;;;-6.00;100.00;149846.94;4987684;28;20537;-85
2024/01/12 04:47:28;;;;;;;37.00;23.93;;;;;;;-5.99;100.00;149849.50;4986915;28;20445;-85
2024/01/12 04:49:55;;;;;;;35.63;22.00;;;;;;;-6.02;100.00;149843.13;4987382;28;20512;-86
2024/01/12 04:52:22;;;;;;;39.07;24.47;;;;;;;-6.01;100.00;149844.41;4986476;28;20465;-85
2024/01/12 04:54:50;;;;;;;34.83;22.87;;;;;;;-5.99;100.00;149850.78;4985015;28;20568;-85
2024/01/12 04:57:17;;;;;;;34.80;22.40;;;;;;;-6.01;100.00;149845.66;4970901;28;20557;-84
2024/01/12 04:59:43;;;;;;;30.90;21.67;;;;;;;-6.18;100.00;149802.28;4987580;28;20536;-84
2024/01/12 05:02:10;;;;;;;33.07;22.87;;;;;;;-6.36;100.00;149756.38;5001952;28;20453;-84
2024/01/12 05:04:36;;;;;;;31.73;23.53;;;;;;;-6.47;100.00;149728.28;5002756;28;20934;-83
2024/01/12 05:07:03;;;;;;;36.40;21.63;;;;;;;-6.58;100.00;149701.50;4991181;28;20457;-84
2024/01/12 05:09:30;;;;;;;32.77;22.37;;;;;;;-6.71;100.00;149668.34;4986947;28;20824;-84
2024/01/12 05:11:59;;;;;;;35.90;24.10;;;;;;;-6.77;100.00;149653.03;4987006;28;20449;-83
2024/01/12 05:14:26;;;;;;;39.60;24.37;;;;;;;-6.80;100.00;149645.38;4965717;28;20489;-85
2024/01/12 05:16:52;;;;;;;36.13;23.07;;;;;;;-6.85;100.00;149633.91;4990020;28;20488;-85
2024/01/12 05:19:19;;;;;;;36.00;25.20;;;;;;;-6.68;100.00;149674.72;5003882;28;20457;-83
2024/01/12 05:21:46;;;;;;;36.93;23.43;;;;;;;-6.55;100.00;149709.16;4985993;28;20456;-84
2024/01/12 05:24:14;;;;;;;42.17;25.60;;;;;;;-6.48;100.00;149725.72;4990156;28;20815;-84
2024/01/12 05:26:40;;;;;;;33.87;23.20;;;;;;;-6.49;100.00;149723.22;4983642;28;20450;-83
2024/01/12 05:29:08;;;;;;;39.50;26.20;;;;;;;-6.46;100.00;149730.88;5002686;28;20231;-84
2024/01/12 05:31:35;;;;;;;42.60;24.97;;;;;;;-6.46;100.00;149730.88;4966730;28;20427;-84
2024/01/12 05:34:02;;;;;;;43.13;25.50;;;;;;;-6.54;100.00;149710.44;4987893;28;20447;-83
2024/01/12 05:36:28;;;;;;;38.27;26.13;;;;;;;-6.66;100.00;149679.81;4987542;28;20465;-85
2024/01/12 05:38:55;;;;;;;38.67;25.10;;;;;;;-6.76;100.00;149655.59;4990751;28;20459;-85
2024/01/12 05:41:22;;;;;;;39.70;28.30;;;;;;;-6.85;100.00;149632.63;4974453;28;20430;-85
2024/01/12 05:43:47;;;;;;;37.00;23.00;;;;;;;-6.93;100.00;149612.22;5001494;28;20453;-85
2024/01/12 05:46:15;;;;;;;40.00;22.30;;;;;;;-7.04;100.00;149584.22;4987307;28;20446;-84
2024/01/12 05:48:42;;;;;;;37.73;24.80;;;;;;;-6.97;100.00;149602.06;4987390;28;20207;-84
2024/01/12 05:51:08;;;;;;;37.67;22.30;;;;;;;-6.96;100.00;149604.56;4980043;28;20442;-84
2024/01/12 05:53:35;;;;;;;33.07;21.83;;;;;;;-7.00;100.00;149594.41;4982714;28;20461;-84
2024/01/12 05:56:02;;;;;;;36.50;23.60;;;;;;;-7.04;100.00;149585.47;4987267;28;20480;-84
2024/01/12 05:58:29;;;;;;;40.90;23.90;;;;;;;-7.08;100.00;149575.28;4988158;28;20447;-84
2024/01/12 06:00:56;;;;;;;38.40;21.80;;;;;;;-7.13;100.00;149561.25;4984522;28;20491;-84
2024/01/12 06:03:27;;;;;;;33.83;23.07;;;;;;;-7.13;100.00;149561.25;4986343;28;20933;-84
2024/01/12 06:05:54;;;;;;;28.13;19.57;;;;;;;-7.17;100.00;149551.03;4982100;28;20465;-84
2024/01/12 06:08:21;;;;;;;36.03;21.37;;;;;;;-7.22;100.00;149539.59;4975545;28;20460;-84
2024/01/12 06:10:47;;;;;;;36.60;21.77;;;;;;;-7.24;100.00;149533.22;4994902;28;20468;-84
2024/01/12 06:13:14;;;;;;;33.30;20.70;;;;;;;-7.26;100.00;149528.13;4976608;28;20494;-84
2024/01/12 06:15:41;;;;;;;37.90;20.57;;;;;;;-7.30;100.00;149517.91;4995077;28;20568;-86
2024/01/12 06:18:07;;;;;;;33.63;20.87;;;;;;;-7.28;100.00;149523.03;4983922;28;20468;-85
2024/01/12 06:20:36;;;;;;;31.07;22.40;;;;;;;-7.31;100.00;149515.38;5012722;28;20871;-85
2024/01/12 06:23:02;;;;;;;36.90;22.93;;;;;;;-7.31;100.00;149516.66;4984495;28;20461;-85
2024/01/12 06:25:31;;;;;;;33.40;21.23;;;;;;;-7.29;100.00;149520.47;5000157;28;20459;-86
2024/01/12 06:27:58;;;;;;;31.50;20.57;;;;;;;-7.25;100.00;149531.94;4997511;28;20826;-85
2024/01/12 06:30:25;;;;;;;40.43;23.33;;;;;;;-7.24;100.00;149533.22;4983709;28;20462;-85
2024/01/12 06:32:51;;;;;;;35.40;20.23;;;;;;;-7.27;100.00;149525.56;4993820;28;20467;-85
2024/01/12 06:35:19;;;;;;;38.10;24.53;;;;;;;-7.31;100.00;149515.38;4984172;28;20793;-84
2024/01/12 06:37:47;;;;;;;46.13;26.73;;;;;;;-7.33;100.00;149510.31;4981967;28;20460;-85
2024/01/12 06:40:14;;;;;;;38.67;23.40;;;;;;;-7.30;100.00;149517.91;5011567;28;20503;-84
2024/01/12 06:42:41;;;;;;;37.43;24.40;;;;;;;-7.26;100.00;149529.41;5011886;28;20463;-84
2024/01/12 06:45:10;;;;;;;44.40;25.83;;;;;;;-7.23;100.00;149537.06;4996154;28;20893;-84
2024/01/12 06:47:37;;;;;;;38.27;24.27;;;;;;;-7.19;100.00;149547.22;4997206;28;20764;-85
2024/01/12 06:50:04;;;;;;;38.80;25.03;;;;;;;-7.19;100.00;149545.94;4997351;28;20489;-85
2024/01/12 06:52:31;;;;;;;36.80;26.20;;;;;;;-7.24;100.00;149534.50;4998590;28;20487;-86
2024/01/12 06:54:59;;;;;;;42.77;25.80;;;;;;;-7.25;100.00;149531.94;4997050;28;20837;-85
2024/01/12 06:57:26;;;;;;;35.67;22.60;;;;;;;-7.24;100.00;149533.22;4984335;28;20468;-85
2024/01/12 06:59:52;;;;;;;41.03;26.50;;;;;;;-7.23;100.00;149537.06;4996022;28;20654;-86
2024/01/12 07:02:19;;;;;;;35.40;24.80;;;;;;;-7.23;100.00;149535.78;4970019;28;20883;-85
2024/01/12 07:04:46;;;;;;;39.30;24.33;;;;;;;-7.23;100.00;149535.78;4998035;28;20449;-85
2024/01/12 07:07:13;;;;;;;44.70;27.97;;;;;;;-7.19;100.00;149545.94;4991624;28;20472;-85
2024/01/12 07:09:40;;;;;;;40.07;26.03;;;;;;;-7.16;100.00;149553.59;5006970;28;20457;-85
2024/01/12 07:12:09;;;;;;;37.78;23.50;;;;;;;-7.17;100.00;149552.31;4999562;28;21041;-85
2024/01/12 07:15:20;;;;;;;43.63;24.80;;;;;;;-7.18;100.00;149549.81;5024669;23;20274;-80
2024/01/12 07:18:19;;;;;;;45.75;27.23;;;;;;;-7.17;100.00;149551.03;4989511;28;21288;-85
2024/01/12 07:24:34;;;;;;;41.63;25.17;;;;;;;-7.22;100.00;149538.28;4996798;28;20229;-86
2024/01/12 07:34:32;;;;;;;40.87;25.90;;;;;;;-7.17;100.00;149551.03;4949277;28;20473;-85
2024/01/12 07:37:02;;;;;;;40.07;25.10;;;;;;;-7.16;100.00;149554.88;4962621;28;20489;-85
2024/01/12 07:39:33;;;;;;;38.50;24.20;;;;;;;-7.12;100.00;149563.84;5000670;22;20561;-80
2024/01/12 07:41:59;;;;;;;41.93;26.50;;;;;;;-7.02;100.00;149589.31;5027626;28;20478;-79
2024/01/12 07:44:26;;;;;;;40.20;24.80;;;;;;;-6.94;100.00;149609.72;5052710;28;20964;-79
2024/01/12 07:46:56;;;;;;;41.47;25.23;;;;;;;-6.84;100.00;149636.50;5038482;28;20432;-79
2024/01/12 07:49:23;;;;;;;37.37;25.33;;;;;;;-6.76;100.00;149655.59;5052971;28;20463;-79
2024/01/12 07:51:51;;;;;;;39.43;25.43;;;;;;;-6.67;100.00;149677.31;5057987;28;20508;-79
2024/01/12 07:54:18;;;;;;;38.90;25.67;;;;;;;-6.60;100.00;149695.13;5057121;28;20442;-79
2024/01/12 07:56:44;;;;;;;38.93;26.30;;;;;;;-6.51;100.00;149719.34;5038682;28;20501;-79
2024/01/12 07:59:11;;;;;;;39.30;25.00;;;;;;;-6.45;100.00;149734.66;5051341;28;20463;-79
2024/01/12 08:01:45;;;;;;;49.70;29.00;;;;;;;-6.36;100.00;149757.66;5037995;28;20468;-79
2024/01/12 08:04:11;;;;;;;38.50;24.10;;;;;;;-6.31;100.00;149770.41;5036034;28;20850;-79
2024/01/12 08:06:38;;;;;;;39.00;26.20;;;;;;;-6.26;100.00;149783.16;5052241;28;20438;-79
2024/01/12 08:09:06;;;;;;;47.10;28.30;;;;;;;-6.22;100.00;149793.34;5034659;28;20455;-79
2024/01/12 08:11:32;;;;;;;50.53;27.57;;;;;;;-6.13;100.00;149813.75;5049978;28;20479;-80
2024/01/12 08:13:59;;;;;;;45.10;28.30;;;;;;;-6.00;100.00;149846.94;5057324;28;20562;-79
2024/01/12 08:16:25;;;;;;;48.67;28.87;;;;;;;-5.91;100.00;149871.22;5050841;28;20486;-79
2024/01/12 08:18:52;;;;;;;45.93;27.70;;;;;;;-5.83;100.00;149890.28;5037679;28;20462;-80
2024/01/12 08:21:19;;;;;;;50.60;30.80;;;;;;;-5.70;100.00;149924.75;5022816;28;20462;-79
2024/01/12 08:23:45;;;;;;;42.57;30.50;;;;;;;-5.58;100.00;149954.09;5053688;28;20455;-80
2024/01/12 08:26:14;;;;;;;47.97;31.73;;;;;;;-5.53;100.00;149965.63;5052988;28;20878;-80
2024/01/12 08:28:40;;;;;;;50.23;31.87;;;;;;;-5.49;100.00;149977.09;5054637;28;20466;-80
2024/01/12 08:31:07;;;;;;;45.30;31.20;;;;;;;-5.49;100.00;149977.09;5037549;28;20441;-80
2024/01/12 08:33:33;;;;;;;51.10;32.77;;;;;;;-5.51;100.00;149972.00;5049563;28;21004;-80
2024/01/12 08:36:00;;;;;;;51.50;32.27;;;;;;;-5.52;100.00;149969.41;5035735;28;20464;-80
2024/01/12 08:38:27;;;;;;;45.63;31.97;;;;;;;-5.51;100.00;149972.00;5049792;28;20523;-80
2024/01/12 08:40:53;;;;;;;44.03;29.90;;;;;;;-5.47;100.00;149980.91;5034955;28;20465;-80
2024/01/12 08:43:21;;;;;;;47.10;29.57;;;;;;;-5.40;100.00;149998.81;5035098;28;20433;-80
2024/01/12 08:45:47;;;;;;;50.40;34.87;;;;;;;-5.37;100.00;150007.72;5035609;28;20467;-78
2024/01/12 08:48:14;;;;;;;49.90;29.37;;;;;;;-5.36;100.00;150009.00;5051199;28;20475;-80
2024/01/12 08:50:40;;;;;;;49.67;31.00;;;;;;;-5.34;100.00;150015.38;5041833;28;20434;-80
2024/01/12 08:53:09;;;;;;;40.97;24.47;;;;;;;-5.37;100.00;150006.44;5051857;28;20452;-81
2024/01/12 08:55:36;;;;;;;49.77;30.37;;;;;;;-5.40;100.00;150000.03;5050675;28;20451;-81
2024/01/12 08:58:02;;;;;;;56.13;29.37;;;;;;;-5.42;100.00;149994.94;5037235;28;20453;-80
2024/01/12 09:00:30;;;;;;;48.20;30.43;;;;;;;-5.38;100.00;150003.91;5049534;28;20792;-79
2024/01/12 09:02:57;;;;;;;46.37;31.40;;;;;;;-5.39;100.00;150001.34;5039251;28;20415;-79
2024/01/12 09:05:23;;;;;;;50.97;29.87;;;;;;;-5.38;100.00;150005.19;5050998;28;20966;-79
2024/01/12 09:07:50;;;;;;;41.13;27.80;;;;;;;-5.35;100.00;150012.84;5051280;28;20459;-79
2024/01/12 09:10:17;;;;;;;52.60;30.83;;;;;;;-5.29;100.00;150026.84;5051043;28;20507;-80
2024/01/12 09:12:44;;;;;;;50.63;32.03;;;;;;;-5.26;100.00;150035.81;5036200;28;20455;-80
2024/01/12 09:15:10;;;;;;;42.97;29.53;;;;;;;-5.20;100.00;150051.16;5050523;28;20453;-80
2024/01/12 09:17:39;;;;;;;43.17;28.07;;;;;;;-5.14;100.00;150065.19;5024681;28;20438;-79
2024/01/12 09:20:07;;;;;;;51.50;31.90;;;;;;;-5.11;100.00;150074.09;5050661;28;20447;-79
2024/01/12 09:22:33;;;;;;;51.27;31.70;;;;;;;-5.05;100.00;150089.44;5051719;28;20839;-80
2024/01/12 09:25:00;;;;;;;48.03;29.93;;;;;;;-5.01;100.00;150099.69;5034210;28;20469;-79
2024/01/12 09:27:27;;;;;;;43.43;28.77;;;;;;;-4.93;100.00;150120.13;5050661;28;20502;-79
2024/01/12 09:29:53;;;;;;;46.30;30.07;;;;;;;-4.90;100.00;150125.22;5050035;28;20440;-79
2024/01/12 09:32:20;;;;;;;43.17;27.97;;;;;;;-4.83;100.00;150144.38;5050348;28;20487;-79
2024/01/12 09:34:48;;;;;;;46.67;30.27;;;;;;;-4.74;100.00;150166.13;5049301;28;21071;-79
2024/01/12 09:37:14;;;;;;;51.43;30.00;;;;;;;-4.71;100.00;150173.78;5019152;28;21001;-79
2024/01/12 09:39:41;;;;;;;48.17;29.83;;;;;;;-4.67;100.00;150183.97;5033545;28;20505;-79
2024/01/12 09:42:09;;;;;;;45.20;29.47;;;;;;;-4.62;100.00;150196.75;5036189;28;20860;-79
2024/01/12 09:44:38;;;;;;;46.03;29.67;;;;;;;-4.54;100.00;150218.50;5049942;28;20469;-79
2024/01/12 09:47:05;;;;;;;44.97;29.70;;;;;;;-4.43;100.00;150246.63;5051550;28;20476;-79
2024/01/12 09:49:32;;;;;;;45.97;29.77;;;;;;;-4.33;100.00;150270.88;5050607;28;20429;-79
2024/01/12 09:52:01;;;;;;;44.90;29.90;;;;;;;-4.25;100.00;150290.03;5056011;28;20452;-80
2024/01/12 09:54:28;;;;;;;45.20;27.47;;;;;;;-4.16;100.00;150314.34;5054900;28;20789;-79
2024/01/12 09:56:56;;;;;;;48.40;29.80;;;;;;;-4.11;100.00;150325.84;5053243;28;20957;-80
2024/01/12 09:59:24;;;;;;;52.23;29.40;;;;;;;-4.10;100.00;150329.66;5056430;28;20546;-80
2024/01/12 10:01:51;;;;;;;42.10;29.37;;;;;;;-4.10;100.00;150329.66;5056715;28;20430;-79
2024/01/12 10:04:18;;;;;;;50.47;29.90;;;;;;;-4.06;100.00;150339.91;5054872;28;20453;-80
2024/01/12 10:06:45;;;;;;;51.33;30.33;;;;;;;-4.09;100.00;150332.25;5022480;28;20437;-80
2024/01/12 10:09:13;;;;;;;48.10;28.37;;;;;;;-4.15;100.00;150316.88;5054818;28;20482;-79
2024/01/12 10:11:40;;;;;;;44.70;27.37;;;;;;;-4.16;100.00;150314.34;5044863;28;20434;-79
2024/01/12 10:14:07;;;;;;;46.67;27.10;;;;;;;-4.15;100.00;150316.88;5057726;28;20963;-79
2024/01/12 10:16:33;;;;;;;52.13;29.10;;;;;;;-4.08;100.00;150334.81;5058097;28;20453;-79
2024/01/12 10:18:59;;;;;;;42.53;29.10;;;;;;;-4.08;100.00;150333.53;5023161;28;20463;-79
2024/01/12 10:21:27;;;;;;;44.27;27.80;;;;;;;-4.02;100.00;150350.13;5056573;28;20468;-79
2024/01/12 10:24:01;;;;;;;39.13;26.50;;;;;;;-4.00;100.00;150355.28;5056880;28;20413;-79
2024/01/12 10:26:29;;;;;;;51.53;30.40;;;;;;;-3.98;100.00;150360.38;5053365;28;20465;-80
2024/01/12 10:28:56;;;;;;;48.10;28.53;;;;;;;-3.95;100.00;150368.06;5022004;28;20429;-79
2024/01/12 10:31:22;;;;;;;43.47;28.77;;;;;;;-3.92;100.00;150375.69;5027875;28;20437;-79
2024/01/12 10:33:49;;;;;;;54.50;31.63;;;;;;;-3.83;100.00;150398.72;5055044;28;20455;-79
2024/01/12 10:36:20;;;;;;;47.90;28.30;;;;;;;-3.82;100.00;150401.28;5053625;28;20486;-79
2024/01/12 10:38:49;;;;;;;42.37;27.70;;;;;;;-3.86;100.00;150391.03;5052654;28;20822;-79
2024/01/12 10:41:18;;;;;;;44.70;29.87;;;;;;;-3.88;100.00;150385.94;5035719;28;20478;-79
2024/01/12 10:43:51;;;;;;;46.73;30.20;;;;;;;-3.86;100.00;150391.03;5039684;28;20448;-79
2024/01/12 10:46:25;;;;;;;43.07;26.50;;;;;;;-3.85;100.00;150393.63;5025366;28;20432;-79
2024/01/12 10:48:56;;;;;;;46.93;31.80;;;;;;;-3.83;100.00;150398.72;5052305;28;20459;-79
2024/01/12 10:51:25;;;;;;;43.27;28.30;;;;;;;-3.78;100.00;150411.50;5053874;28;20449;-79
2024/01/12 10:53:57;;;;;;;47.33;28.70;;;;;;;-3.71;100.00;150429.38;5053807;28;20460;-79
2024/01/12 10:56:24;;;;;;;41.80;27.70;;;;;;;-3.70;100.00;150430.69;5052505;28;20524;-79
2024/01/12 10:58:52;;;;;;;46.60;29.50;;;;;;;-3.66;100.00;150440.94;5053434;28;20440;-79
2024/01/12 11:01:18;;;;;;;49.30;30.60;;;;;;;-3.67;100.00;150438.34;5043768;28;20811;-79
2024/01/12 11:03:45;;;;;;;39.97;26.07;;;;;;;-3.66;100.00;150439.66;5053186;28;20460;-79
2024/01/12 11:06:13;;;;;;;46.73;27.80;;;;;;;-3.70;100.00;150431.97;5052551;28;20458;-79
2024/01/12 11:08:40;;;;;;;47.70;28.83;;;;;;;-3.62;100.00;150449.84;5044690;28;20448;-79
2024/01/12 11:11:07;;;;;;;46.00;28.37;;;;;;;-3.64;100.00;150446.03;5044319;28;20823;-79
2024/01/12 11:13:34;;;;;;;46.23;26.80;;;;;;;-3.58;100.00;150460.09;5052547;28;20532;-79
2024/01/12 11:16:02;;;;;;;41.40;25.60;;;;;;;-3.61;100.00;150452.44;5036965;28;20845;-79
2024/01/12 11:18:30;;;;;;;48.30;30.57;;;;;;;-3.51;100.00;150479.28;5036663;28;20453;-79